sensor_id;sensor_type;location;lat;lon;timestamp;pressure;altitude;pressure_sealevel;temperature;humidity
48872;BME280;36154;51.674;7.824;2023-05-29T00:00:00;101383.34;;;21.49;38.47
48872;BME280;36154;51.674;7.824;2023-05-29T00:02:25;101376.50;;;21.46;38.58
48872;BME280;36154;51.674;7.824;2023-05-29T00:04:50;101378.28;;;21.44;38.62
48872;BME280;36154;51.674;7.824;2023-05-29T00:07:16;101374.84;;;21.42;38.69
48872;BME280;36154;51.674;7.824;2023-05-29T00:09:41;101377.53;;;21.37;38.76
48872;BME280;36154;51.674;7.824;2023-05-29T00:12:07;101378.41;;;21.36;38.78
48872;BME280;36154;51.674;7.824;2023-05-29T00:14:32;101389.66;;;21.35;38.83
48872;BME280;36154;51.674;7.824;2023-05-29T00:16:57;101385.38;;;21.34;38.50
48872;BME280;36154;51.674;7.824;2023-05-29T00:19:23;101381.09;;;21.32;38.91
48872;BME280;36154;51.674;7.824;2023-05-29T00:21:50;101391.50;;;21.27;38.96
48872;BME280;36154;51.674;7.824;2023-05-29T00:24:15;101400.25;;;21.23;38.99
48872;BME280;36154;51.674;7.824;2023-05-29T00:26:42;101385.69;;;21.17;38.93
48872;BME280;36154;51.674;7.824;2023-05-29T00:29:07;101391.78;;;21.15;39.14
48872;BME280;36154;51.674;7.824;2023-05-29T00:31:33;101391.81;;;21.12;39.08
48872;BME280;36154;51.674;7.824;2023-05-29T00:33:58;101391.03;;;21.08;39.17
48872;BME280;36154;51.674;7.824;2023-05-29T00:36:24;101395.38;;;21.08;39.27
48872;BME280;36154;51.674;7.824;2023-05-29T00:38:50;101400.59;;;21.04;39.45
48872;BME280;36154;51.674;7.824;2023-05-29T00:41:15;101409.34;;;21.00;39.37
48872;BME280;36154;51.674;7.824;2023-05-29T00:43:41;101409.38;;;20.97;39.42
48872;BME280;36154;51.674;7.824;2023-05-29T00:46:07;101414.56;;;20.97;39.31
48872;BME280;36154;51.674;7.824;2023-05-29T00:48:33;101405.94;;;20.95;39.36
48872;BME280;36154;51.674;7.824;2023-05-29T00:50:59;101415.44;;;20.96;39.26
48872;BME280;36154;51.674;7.824;2023-05-29T00:53:24;101411.13;;;20.95;39.26
48872;BME280;36154;51.674;7.824;2023-05-29T00:55:50;101422.34;;;20.97;39.05
48872;BME280;36154;51.674;7.824;2023-05-29T00:58:16;101421.47;;;20.95;38.95
48872;BME280;36154;51.674;7.824;2023-05-29T01:00:41;101418.06;;;20.93;38.88
48872;BME280;36154;51.674;7.824;2023-05-29T01:03:08;101427.63;;;20.90;38.94
48872;BME280;36154;51.674;7.824;2023-05-29T01:05:34;101426.84;;;20.86;38.93
48872;BME280;36154;51.674;7.824;2023-05-29T01:08:01;101431.19;;;20.85;38.85
48872;BME280;36154;51.674;7.824;2023-05-29T01:10:27;101432.91;;;20.83;38.84
48872;BME280;36154;51.674;7.824;2023-05-29T01:13:18;101432.06;;;20.83;38.87
48872;BME280;36154;51.674;7.824;2023-05-29T01:15:59;101435.59;;;20.80;38.91
48872;BME280;36154;51.674;7.824;2023-05-29T01:18:34;101445.97;;;20.79;38.70
48872;BME280;36154;51.674;7.824;2023-05-29T01:24:01;101439.16;;;20.72;38.72
48872;BME280;36154;51.674;7.824;2023-05-29T01:26:45;101446.94;;;20.70;38.81
48872;BME280;36154;51.674;7.824;2023-05-29T01:29:14;101447.88;;;20.67;38.76
48872;BME280;36154;51.674;7.824;2023-05-29T01:31:42;101450.50;;;20.64;38.60
48872;BME280;36154;51.674;7.824;2023-05-29T01:34:08;101454.88;;;20.62;38.69
48872;BME280;36154;51.674;7.824;2023-05-29T01:36:34;101460.03;;;20.62;38.71
48872;BME280;36154;51.674;7.824;2023-05-29T01:39:00;101460.03;;;20.62;38.72
48872;BME280;36154;51.674;7.824;2023-05-29T01:41:26;101457.47;;;20.61;38.59
48872;BME280;36154;51.674;7.824;2023-05-29T01:43:52;101460.91;;;20.61;38.58
48872;BME280;36154;51.674;7.824;2023-05-29T01:46:19;101452.31;;;20.59;38.56
48872;BME280;36154;51.674;7.824;2023-05-29T01:48:45;101461.84;;;20.57;38.64
48872;BME280;36154;51.674;7.824;2023-05-29T01:51:12;101459.25;;;20.57;38.64
48872;BME280;36154;51.674;7.824;2023-05-29T01:53:38;101453.25;;;20.55;38.60
48872;BME280;36154;51.674;7.824;2023-05-29T01:56:05;101460.13;;;20.56;38.46
48872;BME280;36154;51.674;7.824;2023-05-29T01:58:31;101459.28;;;20.56;38.53
48872;BME280;36154;51.674;7.824;2023-05-29T02:00:57;101457.56;;;20.55;38.55
48872;BME280;36154;51.674;7.824;2023-05-29T02:03:23;101466.25;;;20.52;37.93
48872;BME280;36154;51.674;7.824;2023-05-29T02:05:49;101467.13;;;20.51;38.17
48872;BME280;36154;51.674;7.824;2023-05-29T02:08:14;101456.81;;;20.48;38.40
48872;BME280;36154;51.674;7.824;2023-05-29T02:10:39;101465.47;;;20.45;38.58
48872;BME280;36154;51.674;7.824;2023-05-29T02:13:05;101464.59;;;20.43;38.36
48872;BME280;36154;51.674;7.824;2023-05-29T02:15:30;101464.66;;;20.42;38.61
48872;BME280;36154;51.674;7.824;2023-05-29T02:17:55;101456.03;;;20.40;38.51
48872;BME280;36154;51.674;7.824;2023-05-29T02:20:20;101456.94;;;20.39;38.47
48872;BME280;36154;51.674;7.824;2023-05-29T02:22:46;101460.41;;;20.36;38.62
48872;BME280;36154;51.674;7.824;2023-05-29T02:25:11;101456.97;;;20.36;38.55
48872;BME280;36154;51.674;7.824;2023-05-29T02:27:37;101457.00;;;20.33;38.59
48872;BME280;36154;51.674;7.824;2023-05-29T02:30:02;101463.06;;;20.31;38.32
48872;BME280;36154;51.674;7.824;2023-05-29T02:32:27;101470.88;;;20.30;38.60
48872;BME280;36154;51.674;7.824;2023-05-29T02:34:54;101463.97;;;20.27;38.48
48872;BME280;36154;51.674;7.824;2023-05-29T02:37:19;101474.38;;;20.24;38.37
48872;BME280;36154;51.674;7.824;2023-05-29T02:39:45;101465.81;;;20.19;38.35
48872;BME280;36154;51.674;7.824;2023-05-29T02:42:10;101449.69;;;20.03;38.53
48872;BME280;36154;51.674;7.824;2023-05-29T02:44:35;101477.16;;;20.12;38.68
48872;BME280;36154;51.674;7.824;2023-05-29T02:47:03;101472.81;;;20.12;38.47
48872;BME280;36154;51.674;7.824;2023-05-29T02:49:28;101471.13;;;20.10;38.34
48872;BME280;36154;51.674;7.824;2023-05-29T02:51:53;101472.06;;;20.03;38.46
48872;BME280;36154;51.674;7.824;2023-05-29T02:54:23;101469.53;;;20.00;38.52
48872;BME280;36154;51.674;7.824;2023-05-29T02:56:48;101481.59;;;20.01;38.59
48872;BME280;36154;51.674;7.824;2023-05-29T02:59:13;101479.03;;;19.98;38.65
48872;BME280;36154;51.674;7.824;2023-05-29T03:01:39;101479.88;;;20.00;38.69
48872;BME280;36154;51.674;7.824;2023-05-29T03:04:04;101485.94;;;19.99;38.72
48872;BME280;36154;51.674;7.824;2023-05-29T03:06:29;101490.28;;;19.97;38.78
48872;BME280;36154;51.674;7.824;2023-05-29T03:08:55;101492.00;;;19.94;38.62
48872;BME280;36154;51.674;7.824;2023-05-29T03:11:20;101487.75;;;19.90;38.77
48872;BME280;36154;51.674;7.824;2023-05-29T03:13:48;101487.81;;;19.87;38.79
48872;BME280;36154;51.674;7.824;2023-05-29T03:16:14;101480.97;;;19.83;38.63
48872;BME280;36154;51.674;7.824;2023-05-29T03:18:39;101481.00;;;19.80;38.59
48872;BME280;36154;51.674;7.824;2023-05-29T03:21:05;101486.19;;;19.77;38.83
48872;BME280;36154;51.674;7.824;2023-05-29T03:23:31;101487.94;;;19.77;38.81
48872;BME280;36154;51.674;7.824;2023-05-29T03:25:56;101489.66;;;19.74;38.85
48872;BME280;36154;51.674;7.824;2023-05-29T03:28:22;101485.41;;;19.72;38.87
48872;BME280;36154;51.674;7.824;2023-05-29T03:30:47;101482.84;;;19.70;38.64
48872;BME280;36154;51.674;7.824;2023-05-29T03:33:13;101488.88;;;19.69;38.76
48872;BME280;36154;51.674;7.824;2023-05-29T03:35:38;101491.47;;;19.68;38.92
48872;BME280;36154;51.674;7.824;2023-05-29T03:38:03;101479.47;;;19.64;38.80
48872;BME280;36154;51.674;7.824;2023-05-29T03:40:28;101486.38;;;19.60;38.72
48872;BME280;36154;51.674;7.824;2023-05-29T03:42:54;101488.97;;;19.58;38.98
48872;BME280;36154;51.674;7.824;2023-05-29T03:45:19;101489.00;;;19.55;38.88
48872;BME280;36154;51.674;7.824;2023-05-29T03:47:44;101487.28;;;19.54;38.96
48872;BME280;36154;51.674;7.824;2023-05-29T03:50:10;101485.56;;;19.55;39.11
48872;BME280;36154;51.674;7.824;2023-05-29T03:52:36;101500.25;;;19.53;38.79
48872;BME280;36154;51.674;7.824;2023-05-29T03:55:02;101495.06;;;19.53;39.03
48872;BME280;36154;51.674;7.824;2023-05-29T03:57:27;101507.13;;;19.51;39.05
48872;BME280;36154;51.674;7.824;2023-05-29T03:59:53;101512.31;;;19.48;39.07
48872;BME280;36154;51.674;7.824;2023-05-29T04:02:18;101508.94;;;19.43;38.99
48872;BME280;36154;51.674;7.824;2023-05-29T04:04:43;101505.50;;;19.42;38.86
48872;BME280;36154;51.674;7.824;2023-05-29T04:07:09;101503.75;;;19.44;39.33
48872;BME280;36154;51.674;7.824;2023-05-29T04:09:35;101502.91;;;19.45;39.34
48872;BME280;36154;51.674;7.824;2023-05-29T04:12:00;101502.88;;;19.47;39.20
48872;BME280;36154;51.674;7.824;2023-05-29T04:14:31;101506.31;;;19.47;39.08
48872;BME280;36154;51.674;7.824;2023-05-29T04:16:56;101508.06;;;19.45;39.25
48872;BME280;36154;51.674;7.824;2023-05-29T04:19:21;101504.63;;;19.45;39.16
48872;BME280;36154;51.674;7.824;2023-05-29T04:21:47;101504.63;;;19.46;39.29
48872;BME280;36154;51.674;7.824;2023-05-29T04:24:14;101501.16;;;19.47;39.21
48872;BME280;36154;51.674;7.824;2023-05-29T04:26:39;101504.66;;;19.43;39.25
48872;BME280;36154;51.674;7.824;2023-05-29T04:29:07;101512.41;;;19.42;39.47
48872;BME280;36154;51.674;7.824;2023-05-29T04:31:33;101512.38;;;19.46;39.41
48872;BME280;36154;51.674;7.824;2023-05-29T04:33:58;101514.06;;;19.47;39.16
48872;BME280;36154;51.674;7.824;2023-05-29T04:36:25;101520.97;;;19.45;39.19
48872;BME280;36154;51.674;7.824;2023-05-29T04:38:52;101519.25;;;19.44;39.27
48872;BME280;36154;51.674;7.824;2023-05-29T04:41:18;101521.84;;;19.44;39.39
48872;BME280;36154;51.674;7.824;2023-05-29T04:43:43;101523.53;;;19.48;39.38
48872;BME280;36154;51.674;7.824;2023-05-29T04:46:08;101523.53;;;19.48;39.32
48872;BME280;36154;51.674;7.824;2023-05-29T04:48:38;101537.31;;;19.47;39.51
48872;BME280;36154;51.674;7.824;2023-05-29T04:51:06;101533.06;;;19.46;39.30
48872;BME280;36154;51.674;7.824;2023-05-29T04:53:31;101539.91;;;19.47;39.37
48872;BME280;36154;51.674;7.824;2023-05-29T04:55:57;101541.66;;;19.47;39.53
48872;BME280;36154;51.674;7.824;2023-05-29T04:58:25;101535.63;;;19.46;39.43
48872;BME280;36154;51.674;7.824;2023-05-29T05:00:51;101533.91;;;19.45;39.49
48872;BME280;36154;51.674;7.824;2023-05-29T05:03:16;101542.50;;;19.46;39.45
48872;BME280;36154;51.674;7.824;2023-05-29T05:05:42;101541.66;;;19.45;39.29
48872;BME280;36154;51.674;7.824;2023-05-29T05:08:09;101545.09;;;19.47;39.32
48872;BME280;36154;51.674;7.824;2023-05-29T05:10:35;101545.91;;;19.49;39.47
48872;BME280;36154;51.674;7.824;2023-05-29T05:13:00;101545.91;;;19.49;39.43
48872;BME280;36154;51.674;7.824;2023-05-29T05:15:27;101549.38;;;19.48;39.36
48872;BME280;36154;51.674;7.824;2023-05-29T05:17:53;101545.91;;;19.49;39.46
48872;BME280;36154;51.674;7.824;2023-05-29T05:20:18;101550.22;;;19.52;39.43
48872;BME280;36154;51.674;7.824;2023-05-29T05:22:44;101537.28;;;19.53;39.47
48872;BME280;36154;51.674;7.824;2023-05-29T05:25:09;101543.28;;;19.55;39.53
48872;BME280;36154;51.674;7.824;2023-05-29T05:27:35;101533.78;;;19.57;39.23
48872;BME280;36154;51.674;7.824;2023-05-29T05:30:00;101543.22;;;19.62;39.42
48872;BME280;36154;51.674;7.824;2023-05-29T05:32:25;101553.56;;;19.65;39.34
48872;BME280;36154;51.674;7.824;2023-05-29T05:34:51;101545.75;;;19.68;39.43
48872;BME280;36154;51.674;7.824;2023-05-29T05:37:17;101548.34;;;19.69;39.76
48872;BME280;36154;51.674;7.824;2023-05-29T05:39:42;101545.75;;;19.68;39.20
48872;BME280;36154;51.674;7.824;2023-05-29T05:42:08;101544.91;;;19.69;39.09
48872;BME280;36154;51.674;7.824;2023-05-29T05:44:33;101547.47;;;19.69;39.18
48872;BME280;36154;51.674;7.824;2023-05-29T05:46:59;101547.44;;;19.73;39.25
48872;BME280;36154;51.674;7.824;2023-05-29T05:49:24;101546.56;;;19.74;39.13
48872;BME280;36154;51.674;7.824;2023-05-29T05:51:49;101550.88;;;19.75;39.30
48872;BME280;36154;51.674;7.824;2023-05-29T05:54:15;101551.69;;;19.78;39.22
48872;BME280;36154;51.674;7.824;2023-05-29T05:56:40;101557.69;;;19.81;39.24
48872;BME280;36154;51.674;7.824;2023-05-29T05:59:06;101554.22;;;19.84;39.18
48872;BME280;36154;51.674;7.824;2023-05-29T06:01:31;101552.47;;;19.84;39.18
48872;BME280;36154;51.674;7.824;2023-05-29T06:03:58;101555.88;;;19.88;39.08
48872;BME280;36154;51.674;7.824;2023-05-29T06:06:23;101555.00;;;19.90;39.38
48872;BME280;36154;51.674;7.824;2023-05-29T06:08:48;101555.84;;;19.92;39.27
48872;BME280;36154;51.674;7.824;2023-05-29T06:11:14;101554.09;;;19.94;39.07
48872;BME280;36154;51.674;7.824;2023-05-29T06:13:40;101558.41;;;19.96;39.02
48872;BME280;36154;51.674;7.824;2023-05-29T06:16:05;101547.22;;;19.93;39.00
48872;BME280;36154;51.674;7.824;2023-05-29T06:18:31;101560.97;;;19.99;39.00
48872;BME280;36154;51.674;7.824;2023-05-29T06:20:56;101564.38;;;19.99;39.32
48872;BME280;36154;51.674;7.824;2023-05-29T06:23:21;101560.94;;;20.02;39.01
48872;BME280;36154;51.674;7.824;2023-05-29T06:25:47;101552.28;;;20.01;38.98
48872;BME280;36154;51.674;7.824;2023-05-29T06:28:12;101558.31;;;20.03;39.14
48872;BME280;36154;51.674;7.824;2023-05-29T06:30:38;101559.13;;;20.07;38.92
48872;BME280;36154;51.674;7.824;2023-05-29T06:33:04;101561.72;;;20.08;39.18
48872;BME280;36154;51.674;7.824;2023-05-29T06:35:29;101559.94;;;20.10;39.10
48872;BME280;36154;51.674;7.824;2023-05-29T06:37:54;101553.88;;;20.13;38.93
48872;BME280;36154;51.674;7.824;2023-05-29T06:40:19;101549.56;;;20.13;39.05
48872;BME280;36154;51.674;7.824;2023-05-29T06:42:45;101557.31;;;20.15;39.05
48872;BME280;36154;51.674;7.824;2023-05-29T06:45:11;101557.25;;;20.18;39.09
48872;BME280;36154;51.674;7.824;2023-05-29T06:47:39;101557.22;;;20.21;39.12
48872;BME280;36154;51.674;7.824;2023-05-29T06:50:05;101561.53;;;20.22;38.95
48872;BME280;36154;51.674;7.824;2023-05-29T06:52:30;101557.19;;;20.24;38.88
48872;BME280;36154;51.674;7.824;2023-05-29T06:54:56;101565.78;;;20.26;38.94
48872;BME280;36154;51.674;7.824;2023-05-29T06:57:21;101567.50;;;20.27;38.81
48872;BME280;36154;51.674;7.824;2023-05-29T06:59:47;101570.06;;;20.29;38.90
48872;BME280;36154;51.674;7.824;2023-05-29T07:02:12;101572.66;;;20.30;38.97
48872;BME280;36154;51.674;7.824;2023-05-29T07:04:37;101576.06;;;20.33;38.93
48872;BME280;36154;51.674;7.824;2023-05-29T07:07:03;101585.53;;;20.35;38.73
48872;BME280;36154;51.674;7.824;2023-05-29T07:09:28;101583.78;;;20.36;38.72
48872;BME280;36154;51.674;7.824;2023-05-29T07:11:53;101581.19;;;20.37;38.64
48872;BME280;36154;51.674;7.824;2023-05-29T07:14:19;101586.34;;;20.39;38.91
48872;BME280;36154;51.674;7.824;2023-05-29T07:16:44;101580.28;;;20.40;38.81
48872;BME280;36154;51.674;7.824;2023-05-29T07:19:09;101586.31;;;20.42;38.75
48872;BME280;36154;51.674;7.824;2023-05-29T07:21:36;101582.81;;;20.43;38.55
48872;BME280;36154;51.674;7.824;2023-05-29T07:24:01;101592.31;;;20.44;38.61
48872;BME280;36154;51.674;7.824;2023-05-29T07:26:27;101589.72;;;20.47;38.62
48872;BME280;36154;51.674;7.824;2023-05-29T07:28:52;101588.81;;;20.49;38.60
48872;BME280;36154;51.674;7.824;2023-05-29T07:31:18;101587.94;;;20.51;38.65
48872;BME280;36154;51.674;7.824;2023-05-29T07:33:44;101587.91;;;20.54;38.51
48872;BME280;36154;51.674;7.824;2023-05-29T07:36:10;101592.19;;;20.55;38.68
48872;BME280;36154;51.674;7.824;2023-05-29T07:38:36;101587.00;;;20.56;38.66
48872;BME280;36154;51.674;7.824;2023-05-29T07:41:02;101597.31;;;20.59;38.56
48872;BME280;36154;51.674;7.824;2023-05-29T07:43:27;101592.13;;;20.61;38.65
48872;BME280;36154;51.674;7.824;2023-05-29T07:45:53;101597.25;;;20.64;38.46
48872;BME280;36154;51.674;7.824;2023-05-29T07:48:19;101588.59;;;20.65;38.59
48872;BME280;36154;51.674;7.824;2023-05-29T07:50:45;101589.44;;;20.68;38.57
48872;BME280;36154;51.674;7.824;2023-05-29T07:53:11;101593.72;;;20.70;38.59
48872;BME280;36154;51.674;7.824;2023-05-29T07:55:37;101599.72;;;20.72;38.60
48872;BME280;36154;51.674;7.824;2023-05-29T07:58:03;101586.75;;;20.73;38.30
48872;BME280;36154;51.674;7.824;2023-05-29T08:00:29;101585.88;;;20.76;38.31
48872;BME280;36154;51.674;7.824;2023-05-29T08:02:55;101598.81;;;20.77;38.58
48872;BME280;36154;51.674;7.824;2023-05-29T08:05:22;101592.66;;;20.83;38.65
48872;BME280;36154;51.674;7.824;2023-05-29T08:07:47;101584.84;;;20.88;38.79
48872;BME280;36154;51.674;7.824;2023-05-29T08:10:13;101597.66;;;20.95;39.17
48872;BME280;36154;51.674;7.824;2023-05-29T08:12:39;101601.00;;;21.02;39.08
48872;BME280;36154;51.674;7.824;2023-05-29T08:15:05;101605.22;;;21.09;39.11
48872;BME280;36154;51.674;7.824;2023-05-29T08:17:31;101599.91;;;21.17;39.02
48872;BME280;36154;51.674;7.824;2023-05-29T08:19:57;101605.00;;;21.23;39.29
48872;BME280;36154;51.674;7.824;2023-05-29T08:22:28;101600.59;;;21.30;39.39
48872;BME280;36154;51.674;7.824;2023-05-29T08:24:54;101607.38;;;21.38;39.37
48872;BME280;36154;51.674;7.824;2023-05-29T08:27:20;101603.88;;;21.42;39.43
48872;BME280;36154;51.674;7.824;2023-05-29T08:29:45;101596.84;;;21.48;39.45
48872;BME280;36154;51.674;7.824;2023-05-29T08:32:11;101597.63;;;21.53;39.50
48872;BME280;36154;51.674;7.824;2023-05-29T08:34:37;101596.69;;;21.57;39.42
48872;BME280;36154;51.674;7.824;2023-05-29T08:37:03;101598.31;;;21.63;39.41
48872;BME280;36154;51.674;7.824;2023-05-29T08:39:30;101596.53;;;21.66;39.32
48872;BME280;36154;51.674;7.824;2023-05-29T08:44:30;101598.13;;;21.72;39.38
48872;BME280;36154;51.674;7.824;2023-05-29T08:47:01;101611.06;;;21.75;39.39
48872;BME280;36154;51.674;7.824;2023-05-29T08:49:34;101610.16;;;21.77;39.47
48872;BME280;36154;51.674;7.824;2023-05-29T08:52:17;101609.25;;;21.78;39.12
48872;BME280;36154;51.674;7.824;2023-05-29T08:54:44;101607.47;;;21.82;39.38
48872;BME280;36154;51.674;7.824;2023-05-29T08:57:11;101611.75;;;21.85;39.52
48872;BME280;36154;51.674;7.824;2023-05-29T08:59:39;101619.50;;;21.86;39.55
48872;BME280;36154;51.674;7.824;2023-05-29T09:02:07;101609.94;;;21.90;39.64
48872;BME280;36154;51.674;7.824;2023-05-29T09:04:33;101631.47;;;21.93;39.55
48872;BME280;36154;51.674;7.824;2023-05-29T09:06:59;101615.88;;;21.95;39.45
48872;BME280;36154;51.674;7.824;2023-05-29T09:09:29;101606.31;;;21.97;39.49
48872;BME280;36154;51.674;7.824;2023-05-29T09:11:58;101618.41;;;21.98;39.52
48872;BME280;36154;51.674;7.824;2023-05-29T09:14:43;101616.63;;;22.00;39.63
48872;BME280;36154;51.674;7.824;2023-05-29T09:17:11;101629.59;;;22.02;39.62
48872;BME280;36154;51.674;7.824;2023-05-29T09:19:38;101621.78;;;22.03;39.48
48872;BME280;36154;51.674;7.824;2023-05-29T09:22:10;101614.84;;;22.04;39.54
48872;BME280;36154;51.674;7.824;2023-05-29T09:24:37;101608.78;;;22.05;39.45
48872;BME280;36154;51.674;7.824;2023-05-29T09:27:08;101612.22;;;22.07;39.60
48872;BME280;36154;51.674;7.824;2023-05-29T09:29:41;101608.75;;;22.08;39.63
48872;BME280;36154;51.674;7.824;2023-05-29T09:32:15;101598.41;;;22.05;39.59
48872;BME280;36154;51.674;7.824;2023-05-29T09:34:43;101622.53;;;22.11;39.62
48872;BME280;36154;51.674;7.824;2023-05-29T09:37:10;101614.72;;;22.11;39.57
48872;BME280;36154;51.674;7.824;2023-05-29T09:42:08;101624.19;;;22.14;39.66
48872;BME280;36154;51.674;7.824;2023-05-29T09:44:35;101625.06;;;22.14;39.59
48872;BME280;36154;51.674;7.824;2023-05-29T09:47:03;101623.28;;;22.17;39.70
48872;BME280;36154;51.674;7.824;2023-05-29T09:49:31;101619.78;;;22.18;40.28
48872;BME280;36154;51.674;7.824;2023-05-29T09:51:57;101620.66;;;22.18;40.32
48872;BME280;36154;51.674;7.824;2023-05-29T09:54:27;101621.44;;;22.22;40.70
48872;BME280;36154;51.674;7.824;2023-05-29T09:56:54;101607.53;;;22.24;40.85
48872;BME280;36154;51.674;7.824;2023-05-29T09:59:26;101611.00;;;22.25;41.00
48872;BME280;36154;51.674;7.824;2023-05-29T10:02:04;101610.94;;;22.28;41.34
48872;BME280;36154;51.674;7.824;2023-05-29T10:04:30;101613.53;;;22.29;41.45
48872;BME280;36154;51.674;7.824;2023-05-29T10:07:08;101616.06;;;22.31;41.55
48872;BME280;36154;51.674;7.824;2023-05-29T10:09:41;101610.00;;;22.32;41.72
48872;BME280;36154;51.674;7.824;2023-05-29T10:12:11;101609.13;;;22.33;41.72
48872;BME280;36154;51.674;7.824;2023-05-29T10:14:37;101602.16;;;22.33;41.59
48872;BME280;36154;51.674;7.824;2023-05-29T10:17:07;101599.53;;;22.35;41.87
48872;BME280;36154;51.674;7.824;2023-05-29T10:19:36;101604.72;;;22.37;42.06
48872;BME280;36154;51.674;7.824;2023-05-29T10:22:04;101608.16;;;22.37;42.26
48872;BME280;36154;51.674;7.824;2023-05-29T10:24:36;101606.41;;;22.38;42.30
48872;BME280;36154;51.674;7.824;2023-05-29T10:27:06;101598.56;;;22.39;42.08
48872;BME280;36154;51.674;7.824;2023-05-29T10:37:44;101602.00;;;22.41;42.51
48872;BME280;36154;51.674;7.824;2023-05-29T10:40:12;101599.34;;;22.43;41.98
48872;BME280;36154;51.674;7.824;2023-05-29T10:42:42;101595.06;;;22.42;41.97
48872;BME280;36154;51.674;7.824;2023-05-29T10:45:09;101601.91;;;22.44;42.24
48872;BME280;36154;51.674;7.824;2023-05-29T10:47:37;101590.66;;;22.45;42.10
48872;BME280;36154;51.674;7.824;2023-05-29T10:50:05;101595.81;;;22.47;42.27
48872;BME280;36154;51.674;7.824;2023-05-29T10:52:34;101595.81;;;22.47;42.22
48872;BME280;36154;51.674;7.824;2023-05-29T10:55:01;101583.69;;;22.47;42.32
48872;BME280;36154;51.674;7.824;2023-05-29T10:57:29;101593.19;;;22.48;42.14
48872;BME280;36154;51.674;7.824;2023-05-29T11:00:06;101599.22;;;22.49;42.03
48872;BME280;36154;51.674;7.824;2023-05-29T11:02:38;101600.09;;;22.49;42.16
48872;BME280;36154;51.674;7.824;2023-05-29T11:05:05;101597.44;;;22.51;42.15
48872;BME280;36154;51.674;7.824;2023-05-29T11:07:35;101581.03;;;22.50;42.16
48872;BME280;36154;51.674;7.824;2023-05-29T11:10:13;101587.94;;;22.51;42.15
48872;BME280;36154;51.674;7.824;2023-05-29T11:12:58;101594.81;;;22.52;42.14
48872;BME280;36154;51.674;7.824;2023-05-29T11:15:25;101591.34;;;22.53;42.12
48872;BME280;36154;51.674;7.824;2023-05-29T11:17:51;101586.16;;;22.53;42.07
48872;BME280;36154;51.674;7.824;2023-05-29T11:20:43;101586.16;;;22.53;41.99
48872;BME280;36154;51.674;7.824;2023-05-29T11:23:15;101575.78;;;22.53;41.79
48872;BME280;36154;51.674;7.824;2023-05-29T11:25:44;101582.69;;;22.55;41.96
48872;BME280;36154;51.674;7.824;2023-05-29T11:28:12;101593.00;;;22.56;41.81
48872;BME280;36154;51.674;7.824;2023-05-29T11:30:47;101585.22;;;22.56;41.29
48872;BME280;36154;51.674;7.824;2023-05-29T11:33:24;101578.38;;;22.53;39.59
48872;BME280;36154;51.674;7.824;2023-05-29T11:35:59;101575.94;;;22.46;38.15
48872;BME280;36154;51.674;7.824;2023-05-29T11:38:26;101574.38;;;22.37;38.24
48872;BME280;36154;51.674;7.824;2023-05-29T11:40:57;101573.56;;;22.35;38.21
48872;BME280;36154;51.674;7.824;2023-05-29T11:43:25;101581.44;;;22.32;38.13
48872;BME280;36154;51.674;7.824;2023-05-29T11:45:52;101587.56;;;22.29;38.01
48872;BME280;36154;51.674;7.824;2023-05-29T11:48:18;101590.19;;;22.28;37.56
48872;BME280;36154;51.674;7.824;2023-05-29T11:50:46;101588.47;;;22.27;37.05
48872;BME280;36154;51.674;7.824;2023-05-29T11:53:15;101579.03;;;22.23;36.99
48872;BME280;36154;51.674;7.824;2023-05-29T11:55:51;101579.91;;;22.22;36.83
48872;BME280;36154;51.674;7.824;2023-05-29T11:58:17;101569.53;;;22.22;36.84
48872;BME280;36154;51.674;7.824;2023-05-29T12:00:47;101570.41;;;22.21;36.86
48872;BME280;36154;51.674;7.824;2023-05-29T12:03:15;101569.59;;;22.19;36.96
48872;BME280;36154;51.674;7.824;2023-05-29T12:05:48;101564.47;;;22.15;36.42
48872;BME280;36154;51.674;7.824;2023-05-29T12:08:21;101562.03;;;22.08;36.18
48872;BME280;36154;51.674;7.824;2023-05-29T12:10:48;101562.09;;;22.03;36.34
48872;BME280;36154;51.674;7.824;2023-05-29T12:13:14;101562.97;;;22.02;36.55
48872;BME280;36154;51.674;7.824;2023-05-29T12:15:43;101563.75;;;22.07;36.61
48872;BME280;36154;51.674;7.824;2023-05-29T12:18:09;101555.03;;;22.11;36.45
48872;BME280;36154;51.674;7.824;2023-05-29T12:20:36;101555.84;;;22.13;36.46
48872;BME280;36154;51.674;7.824;2023-05-29T12:23:02;101563.59;;;22.15;36.38
48872;BME280;36154;51.674;7.824;2023-05-29T12:25:28;101558.44;;;22.13;36.33
48872;BME280;36154;51.674;7.824;2023-05-29T12:28:00;101560.19;;;22.13;36.29
48872;BME280;36154;51.674;7.824;2023-05-29T12:30:26;101560.22;;;22.11;36.04
48872;BME280;36154;51.674;7.824;2023-05-29T12:32:53;101554.22;;;22.09;36.05
48872;BME280;36154;51.674;7.824;2023-05-29T12:35:22;101557.69;;;22.08;36.25
48872;BME280;36154;51.674;7.824;2023-05-29T12:40:25;101560.34;;;22.04;36.14
48872;BME280;36154;51.674;7.824;2023-05-29T12:42:58;101554.31;;;22.03;36.02
48872;BME280;36154;51.674;7.824;2023-05-29T12:45:26;101561.28;;;22.01;36.12
48872;BME280;36154;51.674;7.824;2023-05-29T12:47:52;101564.75;;;22.00;36.22
48872;BME280;36154;51.674;7.824;2023-05-29T12:52:45;101564.66;;;22.05;36.75
48872;BME280;36154;51.674;7.824;2023-05-29T12:55:11;101572.38;;;22.09;37.22
48872;BME280;36154;51.674;7.824;2023-05-29T12:57:36;101562.75;;;22.14;37.32
48872;BME280;36154;51.674;7.824;2023-05-29T13:00:02;101559.22;;;22.19;37.49
48872;BME280;36154;51.674;7.824;2023-05-29T13:02:28;101554.78;;;22.22;37.55
48872;BME280;36154;51.674;7.824;2023-05-29T13:04:55;101563.34;;;22.27;37.57
48872;BME280;36154;51.674;7.824;2023-05-29T13:07:22;101559.81;;;22.31;37.39
48872;BME280;36154;51.674;7.824;2023-05-29T13:09:47;101555.41;;;22.35;37.35